Terminal Aerodrome Forecast
Issued by NWS Wilmington, OH

Current Version | Previous Version | Text Only | Print | Product List | Glossary Off
Versions: 1 2 3 4 5 6 7 8 9 10 11 12 13 14 15 16 17 18

000
FTUS41 KILN 301400 AAA
TAFDAY
TAF AMD
KDAY 301445Z 3015/3112 24007KT P6SM SCT025 BKN110
     FM301800 27010KT P6SM VCSH BKN040
     FM302100 27008KT P6SM SCT080
     FM310000 23003KT P6SM SCT040=

USA.gov is the U.S. government's official web portal to all federal, state and local government web resources and services.